Time;durP1;ratioP1;P1;durP2;ratioP2;P2;SDS_P1;SDS_P2;PMS_P1;PMS_P2;Temp;Humidity;BMP_temperature;BMP_pressure;BME280_temperature;BME280_humidity;BME280_pressure;Samples;Min_cycle;Max_cycle;Signal;HPM_P1;HPM_P2
2023/09/19 00:02:18;;;;;;;0.00;0.00;;;;;;;12.44;84.79;99632.88;5038600;28;20182;-70
2023/09/19 00:04:43;;;;;;;0.00;0.00;;;;;;;12.48;85.16;99640.19;5036231;28;20037;-71
2023/09/19 00:07:09;;;;;;;0.00;0.00;;;;;;;12.40;85.22;99629.91;5042198;28;20513;-71
2023/09/19 00:09:37;;;;;;;0.00;0.00;;;;;;;12.49;84.94;99635.53;5041696;28;20041;-70
2023/09/19 00:12:09;;;;;;;0.00;0.00;;;;;;;12.47;85.44;99624.88;5023486;28;20862;-70
2023/09/19 00:14:35;;;;;;;0.00;0.00;;;;;;;12.50;85.29;99637.16;5024814;28;20036;-71
2023/09/19 00:17:07;;;;;;;0.00;0.00;;;;;;;12.44;85.53;99639.19;5008969;28;20122;-71
2023/09/19 00:19:32;;;;;;;0.00;0.00;;;;;;;12.43;86.16;99642.22;5030966;28;20040;-71
2023/09/19 00:21:58;;;;;;;0.00;0.00;;;;;;;12.37;86.55;99642.28;5036085;28;20478;-71
2023/09/19 00:24:23;;;;;;;0.00;0.00;;;;;;;12.31;86.60;99634.41;5037333;28;20030;-72
2023/09/19 00:26:49;;;;;;;0.00;0.00;;;;;;;12.30;86.78;99639.09;5025564;28;20531;-71
2023/09/19 00:29:16;;;;;;;0.00;0.00;;;;;;;12.34;86.68;99655.78;5055031;28;20122;-71
2023/09/19 00:31:45;;;;;;;0.00;0.00;;;;;;;12.33;86.57;99645.91;5039131;28;20032;-71
2023/09/19 00:34:10;;;;;;;0.00;0.00;;;;;;;12.32;86.72;99653.31;5037249;28;20056;-71
2023/09/19 00:36:39;;;;;;;0.00;0.00;;;;;;;12.30;86.08;99650.06;5042975;28;20108;-72
2023/09/19 00:39:05;;;;;;;0.00;0.00;;;;;;;12.34;86.46;99651.09;5017988;28;20017;-70
2023/09/19 00:41:38;;;;;;;0.00;0.00;;;;;;;12.33;85.99;99654.94;5042027;28;20048;-70
2023/09/19 00:44:04;;;;;;;0.00;0.00;;;;;;;12.35;85.95;99640.94;5032658;28;20036;-70
2023/09/19 00:46:32;;;;;;;0.00;0.00;;;;;;;12.36;85.65;99643.38;5053396;28;20026;-71
2023/09/19 00:48:58;;;;;;;0.00;0.00;;;;;;;12.39;86.18;99644.72;5036197;28;20036;-71
2023/09/19 00:51:25;;;;;;;0.00;0.00;;;;;;;12.35;85.88;99647.25;5019491;28;20032;-70
2023/09/19 00:53:52;;;;;;;0.00;0.00;;;;;;;12.36;85.98;99648.06;5042225;28;20037;-71
2023/09/19 00:56:18;;;;;;;0.00;0.00;;;;;;;12.34;86.27;99645.63;5025922;28;20035;-71
2023/09/19 00:58:47;;;;;;;0.00;0.00;;;;;;;12.32;85.64;99645.09;5041968;28;20036;-71
2023/09/19 01:01:16;;;;;;;0.00;0.00;;;;;;;12.27;86.35;99639.69;5031860;28;20155;-70
2023/09/19 01:03:44;;;;;;;0.00;0.00;;;;;;;12.20;86.16;99628.28;5057748;28;20029;-70
2023/09/19 01:06:09;;;;;;;0.00;0.00;;;;;;;12.22;86.29;99631.53;5034654;28;20106;-71
2023/09/19 01:08:36;;;;;;;0.00;0.00;;;;;;;12.24;86.61;99634.81;5049202;28;20041;-71
2023/09/19 01:11:16;;;;;;;0.00;0.00;;;;;;;12.25;87.04;99633.69;5027721;28;20417;-71
2023/09/19 01:13:48;;;;;;;0.00;0.00;;;;;;;12.22;86.83;99639.75;5039273;28;20068;-70
2023/09/19 01:16:27;;;;;;;0.00;0.00;;;;;;;12.19;87.43;99648.56;5037602;28;20063;-71
2023/09/19 01:19:11;;;;;;;0.00;0.00;;;;;;;12.14;87.08;99624.00;5037879;28;20036;-70
2023/09/19 01:22:03;;;;;;;0.00;0.00;;;;;;;12.15;87.36;99622.84;5022035;28;20099;-72
2023/09/19 01:24:51;;;;;;;0.00;0.00;;;;;;;12.22;88.33;99634.28;5021756;28;20037;-70
2023/09/19 01:27:19;;;;;;;0.00;0.00;;;;;;;12.20;87.84;99628.28;5028696;28;20021;-72
2023/09/19 01:29:47;;;;;;;0.00;0.00;;;;;;;12.16;88.77;99628.06;5052704;28;20810;-71
2023/09/19 01:32:21;;;;;;;0.00;0.00;;;;;;;12.12;88.76;99631.69;5034744;28;20105;-71
2023/09/19 01:34:52;;;;;;;0.00;0.00;;;;;;;12.19;88.98;99637.59;5026615;28;20032;-72
2023/09/19 01:37:25;;;;;;;0.00;0.00;;;;;;;12.21;88.89;99641.69;5029022;28;20087;-70
2023/09/19 01:40:16;;;;;;;0.00;0.00;;;;;;;12.25;88.10;99621.91;5007238;28;20376;-71
2023/09/19 01:42:59;;;;;;;0.00;0.00;;;;;;;12.24;88.10;99626.59;5017457;28;20120;-71
2023/09/19 01:45:51;;;;;;;0.00;0.00;;;;;;;12.27;88.11;99611.47;5028800;28;20082;-71
2023/09/19 01:48:35;;;;;;;0.00;0.00;;;;;;;12.27;88.58;99628.72;5010042;28;20021;-69
2023/09/19 01:51:12;;;;;;;0.00;0.00;;;;;;;12.26;88.18;99621.59;5018247;28;22008;-71
2023/09/19 01:54:03;;;;;;;0.00;0.00;;;;;;;12.26;88.56;99605.16;5045864;28;20043;-70
2023/09/19 01:56:44;;;;;;;0.00;0.00;;;;;;;12.30;88.27;99622.66;5022426;28;20025;-69
2023/09/19 01:59:13;;;;;;;0.00;0.00;;;;;;;12.27;88.55;99622.44;5019721;28;20033;-70
2023/09/19 02:01:44;;;;;;;0.00;0.00;;;;;;;12.27;88.26;99620.50;5028654;28;20032;-69
2023/09/19 02:04:10;;;;;;;0.00;0.00;;;;;;;12.26;88.66;99610.66;5028475;28;20036;-70
2023/09/19 02:06:39;;;;;;;0.00;0.00;;;;;;;12.27;89.23;99617.75;5034353;28;20086;-71
2023/09/19 02:09:04;;;;;;;0.00;0.00;;;;;;;12.34;89.48;99620.94;5030347;28;20103;-71
2023/09/19 02:11:30;;;;;;;0.00;0.00;;;;;;;12.36;89.25;99626.13;5021789;28;20179;-70
2023/09/19 02:13:55;;;;;;;0.00;0.00;;;;;;;12.35;89.97;99619.84;5046279;28;20127;-71
2023/09/19 02:16:21;;;;;;;0.00;0.00;;;;;;;12.42;90.11;99624.13;5046484;28;20032;-71
2023/09/19 02:18:49;;;;;;;0.00;0.00;;;;;;;12.38;90.41;99612.94;5036575;28;20128;-70
2023/09/19 02:21:16;;;;;;;0.00;0.00;;;;;;;12.46;90.45;99619.69;5031023;28;20057;-71
2023/09/19 02:23:42;;;;;;;0.00;0.00;;;;;;;12.48;90.28;99612.78;5015319;28;20041;-69
2023/09/19 02:26:08;;;;;;;0.00;0.00;;;;;;;12.46;91.21;99603.22;5018664;28;20036;-71
2023/09/19 02:28:35;;;;;;;0.00;0.00;;;;;;;12.49;91.21;99608.13;5022195;28;20116;-72
2023/09/19 02:31:01;;;;;;;0.00;0.00;;;;;;;12.48;91.49;99611.97;5019103;28;20044;-72
2023/09/19 02:33:28;;;;;;;0.00;0.00;;;;;;;12.52;91.52;99602.03;5051828;28;20029;-72
2023/09/19 02:36:00;;;;;;;0.00;0.00;;;;;;;12.54;91.81;99600.63;5041089;28;20032;-71
2023/09/19 02:38:26;;;;;;;0.00;0.00;;;;;;;12.56;91.77;99597.59;5038739;28;20029;-72
2023/09/19 02:40:55;;;;;;;0.00;0.00;;;;;;;12.54;92.24;99597.06;5033886;28;20048;-71
2023/09/19 02:43:21;;;;;;;0.00;0.00;;;;;;;12.57;92.57;99593.69;5032695;28;20566;-70
2023/09/19 02:45:49;;;;;;;0.00;0.00;;;;;;;12.58;92.45;99595.34;5039864;28;20351;-70
2023/09/19 02:48:15;;;;;;;0.00;0.00;;;;;;;12.56;92.50;99583.88;5042836;28;20022;-70
2023/09/19 02:50:40;;;;;;;0.00;0.00;;;;;;;12.61;92.65;99589.25;5036997;28;20025;-70
2023/09/19 02:53:06;;;;;;;0.00;0.00;;;;;;;12.62;92.97;99585.41;5039852;28;20068;-71
2023/09/19 02:55:32;;;;;;;0.00;0.00;;;;;;;12.61;93.14;99583.78;5019055;28;20467;-71
2023/09/19 02:57:59;;;;;;;0.00;0.00;;;;;;;12.65;92.68;99575.78;5055664;28;20060;-71
2023/09/19 03:00:24;;;;;;;0.00;0.00;;;;;;;12.64;93.18;99593.34;5034657;28;20036;-71
2023/09/19 03:02:52;;;;;;;0.00;0.00;;;;;;;12.66;93.19;99575.47;5020947;28;20132;-71
2023/09/19 03:05:18;;;;;;;0.00;0.00;;;;;;;12.71;92.98;99575.38;5033215;28;20539;-72
2023/09/19 03:07:45;;;;;;;0.00;0.00;;;;;;;12.74;92.87;99572.00;5028995;28;20023;-71
2023/09/19 03:10:11;;;;;;;0.00;0.00;;;;;;;12.73;93.23;99572.31;5040492;28;20039;-72
2023/09/19 03:12:37;;;;;;;0.00;0.00;;;;;;;12.69;93.27;99585.03;5037372;28;22015;-73
2023/09/19 03:15:04;;;;;;;0.00;0.00;;;;;;;12.61;92.83;99572.81;5041401;28;20065;-72
2023/09/19 03:17:29;;;;;;;0.00;0.00;;;;;;;12.62;92.72;99574.44;5030258;28;20118;-71
2023/09/19 03:19:57;;;;;;;0.00;0.00;;;;;;;12.60;92.57;99560.22;5042584;28;20033;-71
2023/09/19 03:22:22;;;;;;;0.00;0.00;;;;;;;12.62;92.31;99563.47;5024969;28;20534;-70
2023/09/19 03:24:47;;;;;;;0.00;0.00;;;;;;;12.66;92.23;99563.66;5028716;28;20160;-71
2023/09/19 03:27:16;;;;;;;0.00;0.00;;;;;;;12.72;91.53;99563.28;5053652;28;20053;-71
2023/09/19 03:29:42;;;;;;;0.00;0.00;;;;;;;12.73;92.04;99559.44;5021268;28;20106;-72
2023/09/19 03:32:10;;;;;;;0.00;0.00;;;;;;;12.78;91.47;99565.94;5013825;28;20025;-70
2023/09/19 03:34:42;;;;;;;0.00;0.00;;;;;;;12.78;91.67;99561.28;5021624;28;20029;-71
2023/09/19 03:37:07;;;;;;;0.00;0.00;;;;;;;12.86;91.37;99565.22;5007113;28;20034;-70
2023/09/19 03:39:33;;;;;;;0.00;0.00;;;;;;;12.89;91.67;99556.41;5007045;28;20032;-70
2023/09/19 03:41:58;;;;;;;0.00;0.00;;;;;;;12.88;91.47;99544.63;5029548;28;20057;-70
2023/09/19 03:44:23;;;;;;;0.00;0.00;;;;;;;12.95;91.51;99544.19;5055965;28;21417;-71
2023/09/19 03:46:49;;;;;;;0.00;0.00;;;;;;;12.97;91.57;99536.50;5017943;28;20036;-72
2023/09/19 03:49:14;;;;;;;0.00;0.00;;;;;;;13.00;91.50;99519.41;5028315;28;20030;-71
2023/09/19 03:51:41;;;;;;;0.00;0.00;;;;;;;13.01;91.03;99515.56;4987281;28;20033;-72
2023/09/19 03:54:07;;;;;;;0.00;0.00;;;;;;;13.11;91.05;99514.53;5022739;28;20060;-71
2023/09/19 03:56:33;;;;;;;0.00;0.00;;;;;;;13.09;91.44;99500.31;5021137;28;20029;-71
2023/09/19 03:58:58;;;;;;;0.00;0.00;;;;;;;13.03;91.33;99488.63;5028563;28;20036;-70
2023/09/19 04:01:24;;;;;;;0.00;0.00;;;;;;;13.07;91.25;99497.06;5058496;28;20029;-70
2023/09/19 04:03:51;;;;;;;0.00;0.00;;;;;;;13.03;92.28;99496.84;5049759;28;21250;-71
2023/09/19 04:06:17;;;;;;;0.00;0.00;;;;;;;13.07;92.40;99497.88;5008501;28;20030;-73
2023/09/19 04:08:44;;;;;;;0.00;0.00;;;;;;;13.09;93.26;99500.31;5014181;28;20136;-71
2023/09/19 04:11:10;;;;;;;0.00;0.00;;;;;;;13.19;93.87;99504.78;5055062;28;20020;-72
2023/09/19 04:13:36;;;;;;;0.00;0.00;;;;;;;13.25;94.73;99498.06;5026157;28;20467;-71
2023/09/19 04:16:06;;;;;;;0.00;0.00;;;;;;;13.29;94.70;99499.09;5033599;28;20045;-72
2023/09/19 04:18:33;;;;;;;0.00;0.00;;;;;;;13.36;94.68;99507.75;5030692;28;20053;-71
2023/09/19 04:21:02;;;;;;;0.00;0.00;;;;;;;13.38;95.55;99502.75;5049065;28;20029;-70
2023/09/19 04:23:28;;;;;;;0.00;0.00;;;;;;;13.49;95.08;99497.88;5043552;28;20037;-71
2023/09/19 04:25:53;;;;;;;0.00;0.00;;;;;;;13.56;95.21;99502.94;5018629;28;20029;-71
2023/09/19 04:28:19;;;;;;;0.00;0.00;;;;;;;13.67;94.35;99498.84;5031152;28;20464;-71
2023/09/19 04:30:44;;;;;;;0.00;0.00;;;;;;;13.71;94.39;99502.59;5049239;28;21338;-70
2023/09/19 04:33:10;;;;;;;0.00;0.00;;;;;;;13.79;94.13;99488.09;5048090;28;20040;-72
2023/09/19 04:35:35;;;;;;;0.00;0.00;;;;;;;13.79;94.12;99485.38;5052218;28;20132;-71
2023/09/19 04:38:01;;;;;;;0.00;0.00;;;;;;;13.79;94.23;99468.88;5035565;28;20128;-71
2023/09/19 04:40:26;;;;;;;0.00;0.00;;;;;;;13.85;94.26;99474.25;5034990;28;20044;-70
2023/09/19 04:42:56;;;;;;;0.00;0.00;;;;;;;13.92;94.33;99493.88;5027799;28;20030;-71
2023/09/19 04:45:26;;;;;;;0.00;0.00;;;;;;;14.04;94.38;99474.88;5032114;28;20037;-72
2023/09/19 04:47:52;;;;;;;0.00;0.00;;;;;;;14.11;94.13;99475.25;5036942;28;20024;-71
2023/09/19 04:50:17;;;;;;;0.00;0.00;;;;;;;14.09;93.73;99468.44;5032815;28;20024;-71
2023/09/19 04:52:44;;;;;;;0.00;0.00;;;;;;;14.22;93.58;99464.00;5034313;28;20109;-71
2023/09/19 04:55:16;;;;;;;0.00;0.00;;;;;;;14.24;93.37;99461.78;5031022;28;20100;-70
2023/09/19 04:57:47;;;;;;;0.00;0.00;;;;;;;14.30;92.97;99482.50;5048165;28;20576;-73
2023/09/19 05:00:19;;;;;;;0.00;0.00;;;;;;;14.32;93.37;99485.75;5030057;28;20090;-71
2023/09/19 05:02:45;;;;;;;0.00;0.00;;;;;;;14.28;93.30;99484.75;5034314;28;20057;-73
2023/09/19 05:05:11;;;;;;;0.00;0.00;;;;;;;14.30;93.80;99480.56;5029797;28;20028;-72
2023/09/19 05:07:39;;;;;;;0.00;0.00;;;;;;;14.29;94.35;99486.38;5062853;28;20021;-78
2023/09/19 05:10:05;;;;;;;0.00;0.00;;;;;;;14.20;94.46;99466.28;5028321;28;20028;-77
2023/09/19 05:12:37;;;;;;;0.00;0.00;;;;;;;14.34;94.78;99482.69;5018810;28;20052;-74
2023/09/19 05:15:07;;;;;;;0.00;0.00;;;;;;;14.26;95.49;99468.56;5031702;28;20209;-75
2023/09/19 05:17:33;;;;;;;0.00;0.00;;;;;;;14.29;96.35;99494.63;5039107;28;20479;-74
2023/09/19 05:20:05;;;;;;;0.00;0.00;;;;;;;14.26;96.74;99470.50;5054856;28;20368;-76
2023/09/19 05:22:32;;;;;;;0.00;0.00;;;;;;;14.24;96.60;99461.78;5051513;28;20025;-74
2023/09/19 05:25:03;;;;;;;0.00;0.00;;;;;;;14.24;97.27;99470.03;5040433;28;20056;-72
2023/09/19 05:27:31;;;;;;;0.00;0.00;;;;;;;14.21;97.56;99473.41;5031738;28;20406;-74
2023/09/19 05:29:56;;;;;;;0.00;0.00;;;;;;;14.26;97.70;99484.25;5053570;28;21156;-75
2023/09/19 05:32:23;;;;;;;0.00;0.00;;;;;;;14.19;97.59;99464.63;5041590;28;20139;-76
2023/09/19 05:34:49;;;;;;;0.00;0.00;;;;;;;14.29;97.19;99478.97;5048680;28;20058;-73
2023/09/19 05:37:20;;;;;;;0.00;0.00;;;;;;;14.19;96.92;99448.16;5041087;28;20040;-74
2023/09/19 05:39:45;;;;;;;0.00;0.00;;;;;;;14.27;96.90;99461.13;5046227;28;20036;-73
2023/09/19 05:42:13;;;;;;;0.00;0.00;;;;;;;14.34;96.61;99460.69;5034565;28;20029;-73
2023/09/19 05:44:38;;;;;;;0.00;0.00;;;;;;;14.46;96.16;99480.97;5012851;28;20051;-75
2023/09/19 05:47:08;;;;;;;0.00;0.00;;;;;;;14.46;95.58;99464.47;4988099;28;20175;-74
2023/09/19 05:49:38;;;;;;;0.00;0.00;;;;;;;14.31;95.85;99445.66;5049863;28;20025;-74
2023/09/19 05:52:06;;;;;;;0.00;0.00;;;;;;;14.34;95.44;99447.75;5020935;28;20098;-77
2023/09/19 05:54:39;;;;;;;0.00;0.00;;;;;;;14.42;95.42;99446.97;5055662;28;20055;-74
2023/09/19 05:57:04;;;;;;;0.00;0.00;;;;;;;14.45;95.18;99457.34;5061078;28;20057;-75
2023/09/19 05:59:33;;;;;;;0.00;0.00;;;;;;;14.48;95.28;99456.75;5026683;28;20112;-75
2023/09/19 06:01:59;;;;;;;0.00;0.00;;;;;;;14.39;95.48;99442.09;4996007;28;20032;-75
2023/09/19 06:04:27;;;;;;;0.00;0.00;;;;;;;14.34;98.59;99450.50;5010227;28;20460;-73
2023/09/19 06:06:53;;;;;;;0.00;0.00;;;;;;;14.31;99.23;99467.66;5058524;28;20082;-74
2023/09/19 06:09:18;;;;;;;0.00;0.00;;;;;;;14.23;99.98;99452.69;5022777;28;20024;-74
2023/09/19 06:11:44;;;;;;;0.00;0.00;;;;;;;14.32;100.00;99442.56;5007010;28;20595;-74
2023/09/19 06:14:10;;;;;;;0.00;0.00;;;;;;;14.34;100.00;99438.69;5050822;28;20474;-75
2023/09/19 06:16:41;;;;;;;0.00;0.00;;;;;;;14.42;100.00;99446.97;5028280;28;20032;-75
2023/09/19 06:19:12;;;;;;;0.00;0.00;;;;;;;14.35;100.00;99419.13;5026034;28;20029;-76
2023/09/19 06:21:38;;;;;;;0.00;0.00;;;;;;;14.51;99.38;99444.28;5042443;28;20044;-73
2023/09/19 06:24:04;;;;;;;0.00;0.00;;;;;;;14.54;99.30;99442.84;5040477;28;20052;-73
2023/09/19 06:26:30;;;;;;;0.00;0.00;;;;;;;14.60;99.53;99441.56;4990393;28;20056;-72
2023/09/19 06:29:01;;;;;;;0.00;0.00;;;;;;;14.65;99.15;99435.97;5025268;28;20048;-74
2023/09/19 06:31:26;;;;;;;0.00;0.00;;;;;;;14.69;98.65;99427.88;5033258;28;20489;-73
2023/09/19 06:33:52;;;;;;;0.00;0.00;;;;;;;14.77;98.91;99429.84;5040816;28;20120;-73
2023/09/19 06:36:19;;;;;;;0.00;0.00;;;;;;;14.78;98.45;99431.47;5033962;28;20800;-74
2023/09/19 06:38:44;;;;;;;0.00;0.00;;;;;;;14.81;97.98;99439.91;5055690;28;20037;-75
2023/09/19 06:41:18;;;;;;;0.00;0.00;;;;;;;14.80;97.33;99419.00;5020749;28;20108;-74
2023/09/19 06:43:46;;;;;;;0.00;0.00;;;;;;;14.91;96.74;99421.47;5026947;28;20025;-75
2023/09/19 06:46:12;;;;;;;0.00;0.00;;;;;;;14.92;96.55;99420.34;5021110;28;20066;-73
2023/09/19 06:48:38;;;;;;;0.00;0.00;;;;;;;14.90;96.68;99415.16;5009798;28;20391;-75
2023/09/19 06:51:05;;;;;;;0.00;0.00;;;;;;;14.93;96.50;99427.47;5049802;28;20029;-75
2023/09/19 06:53:44;;;;;;;;;;;;;;;;;;;;;
2023/09/19 06:56:10;;;;;;;0.00;0.00;;;;;;;14.99;96.34;99420.69;5027876;28;20048;-75
2023/09/19 06:58:36;;;;;;;0.00;0.00;;;;;;;15.07;96.17;99414.41;5047790;28;20475;-74
2023/09/19 07:01:03;;;;;;;0.00;0.00;;;;;;;15.21;94.73;99413.44;5031181;28;20040;-75
2023/09/19 07:03:28;;;;;;;0.00;0.00;;;;;;;15.41;93.40;99432.09;5020015;28;20025;-74
2023/09/19 07:05:55;;;;;;;0.00;0.00;;;;;;;15.49;92.88;99420.28;5028339;28;20109;-73
2023/09/19 07:08:21;;;;;;;0.00;0.00;;;;;;;15.58;92.13;99424.97;5037354;28;20099;-73
2023/09/19 07:10:52;;;;;;;0.00;0.00;;;;;;;15.59;91.60;99410.06;5009316;28;20029;-73
2023/09/19 07:13:18;;;;;;;0.00;0.00;;;;;;;15.58;91.41;99413.94;5030727;28;20399;-75
2023/09/19 07:15:47;;;;;;;0.00;0.00;;;;;;;15.59;91.25;99410.88;5027239;28;20028;-72
2023/09/19 07:18:14;;;;;;;0.00;0.00;;;;;;;15.66;90.93;99402.94;5018079;28;20032;-73
2023/09/19 07:20:48;;;;;;;0.00;0.00;;;;;;;15.62;90.77;99396.44;5042901;28;20029;-74
2023/09/19 07:23:18;;;;;;;0.00;0.00;;;;;;;15.63;90.61;99413.81;5021797;28;20018;-73
2023/09/19 07:25:44;;;;;;;0.00;0.00;;;;;;;15.58;91.70;99369.88;5010641;28;20025;-73
2023/09/19 07:28:09;;;;;;;0.00;0.00;;;;;;;15.40;93.38;99408.44;5019189;28;20668;-73
2023/09/19 07:30:39;;;;;;;0.00;0.00;;;;;;;15.35;92.92;99394.84;5053517;28;20262;-73
2023/09/19 07:33:05;;;;;;;0.00;0.00;;;;;;;15.44;91.68;99392.88;5049245;28;20363;-73
2023/09/19 07:35:31;;;;;;;0.00;0.00;;;;;;;15.48;91.50;99387.56;5031333;28;20663;-73
2023/09/19 07:38:01;;;;;;;0.00;0.00;;;;;;;15.31;92.53;99396.59;5031772;28;20030;-72
2023/09/19 07:40:28;;;;;;;0.00;0.00;;;;;;;15.17;93.69;99405.84;5011667;28;20028;-73
2023/09/19 07:42:57;;;;;;;0.00;0.00;;;;;;;15.07;94.27;99388.78;4997225;28;20025;-73
2023/09/19 07:45:22;;;;;;;0.00;0.00;;;;;;;14.98;95.38;99402.53;5031764;28;20422;-73
2023/09/19 07:47:49;;;;;;;0.00;0.00;;;;;;;14.94;95.48;99412.59;5054643;28;20021;-73
2023/09/19 07:50:18;;;;;;;0.00;0.00;;;;;;;15.00;95.74;99405.81;5041092;28;20406;-73
2023/09/19 07:52:50;;;;;;;0.00;0.00;;;;;;;15.02;95.69;99417.28;5020326;28;20035;-73
2023/09/19 07:55:17;;;;;;;0.00;0.00;;;;;;;15.03;96.09;99399.66;5034986;28;20052;-74
2023/09/19 07:57:46;;;;;;;0.00;0.00;;;;;;;15.16;96.63;99386.88;5054694;28;20037;-74
2023/09/19 08:00:12;;;;;;;0.00;0.00;;;;;;;15.19;97.52;99398.03;5035505;28;20463;-74
2023/09/19 08:02:39;;;;;;;0.00;0.00;;;;;;;15.14;97.03;99411.16;5037969;28;20071;-75
2023/09/19 08:05:11;;;;;;;0.00;0.00;;;;;;;15.02;97.72;99398.03;5031190;28;20088;-74
2023/09/19 08:07:38;;;;;;;0.00;0.00;;;;;;;14.89;100.00;99397.00;5042404;28;20954;-74
2023/09/19 08:10:07;;;;;;;0.00;0.00;;;;;;;14.78;100.00;99387.44;5051873;28;20495;-75
2023/09/19 08:12:35;;;;;;;0.00;0.00;;;;;;;14.69;100.00;99383.84;5048665;28;20568;-74
2023/09/19 08:15:01;;;;;;;0.00;0.00;;;;;;;14.64;100.00;99371.03;5052359;28;20038;-73
2023/09/19 08:17:27;;;;;;;0.00;0.00;;;;;;;14.75;100.00;99386.16;5039236;28;20068;-73
2023/09/19 08:19:52;;;;;;;0.00;0.00;;;;;;;14.72;100.00;99377.69;5039825;28;20057;-73
2023/09/19 08:22:23;;;;;;;0.00;0.00;;;;;;;14.77;100.00;99370.13;5024496;28;20039;-75
2023/09/19 08:24:49;;;;;;;0.00;0.00;;;;;;;14.74;100.00;99403.78;5054780;28;20471;-74
2023/09/19 08:27:18;;;;;;;0.00;0.00;;;;;;;14.77;100.00;99381.13;5033354;28;20028;-74
2023/09/19 08:29:44;;;;;;;0.00;0.00;;;;;;;14.89;100.00;99404.47;5020125;28;20033;-74
2023/09/19 08:32:09;;;;;;;0.00;0.00;;;;;;;14.83;100.00;99385.38;5022478;28;20029;-72
2023/09/19 08:34:38;;;;;;;0.00;0.00;;;;;;;14.78;100.00;99380.00;5031766;28;20052;-74
2023/09/19 08:37:03;;;;;;;0.00;0.00;;;;;;;14.80;100.00;99397.00;5048309;28;20040;-74
2023/09/19 08:39:30;;;;;;;0.00;0.00;;;;;;;14.75;100.00;99377.88;5006626;28;20040;-74
2023/09/19 08:42:00;;;;;;;0.00;0.00;;;;;;;14.79;100.00;99387.13;5035967;28;20033;-73
2023/09/19 08:44:27;;;;;;;0.00;0.00;;;;;;;14.80;100.00;99396.19;5038131;28;20087;-74
2023/09/19 08:47:14;;;;;;;0.00;0.00;;;;;;;14.86;100.00;99421.63;5014324;28;20024;-73
2023/09/19 08:50:05;;;;;;;0.00;0.00;;;;;;;14.78;100.00;99377.25;5016405;28;20052;-74
2023/09/19 08:52:41;;;;;;;0.00;0.00;;;;;;;14.96;100.00;99371.78;5038485;28;20021;-75
2023/09/19 08:55:11;;;;;;;0.00;0.00;;;;;;;15.06;100.00;99415.53;5030785;28;20037;-74
2023/09/19 08:57:41;;;;;;;0.00;0.00;;;;;;;15.05;100.00;99380.84;5023958;28;20025;-74
2023/09/19 09:00:11;;;;;;;0.00;0.00;;;;;;;15.18;100.00;99373.59;5036267;28;20029;-74
2023/09/19 09:02:40;;;;;;;0.00;0.00;;;;;;;15.24;100.00;99382.50;5019703;28;20387;-74
2023/09/19 09:05:15;;;;;;;0.00;0.00;;;;;;;15.30;100.00;99386.72;5034838;28;20056;-73
2023/09/19 09:07:43;;;;;;;0.00;0.00;;;;;;;15.11;100.00;99390.59;5005917;28;20372;-74
2023/09/19 09:10:09;;;;;;;0.00;0.00;;;;;;;15.00;100.00;99394.78;5041849;28;20497;-73
2023/09/19 09:12:39;;;;;;;0.00;0.00;;;;;;;14.91;100.00;99385.69;5033505;28;20425;-73
2023/09/19 09:15:05;;;;;;;0.00;0.00;;;;;;;14.87;100.00;99380.03;5015712;28;20430;-74
2023/09/19 09:17:30;;;;;;;0.00;0.00;;;;;;;15.04;100.00;99404.03;5022207;28;20033;-73
2023/09/19 09:19:56;;;;;;;0.00;0.00;;;;;;;15.20;100.00;99368.59;5000613;28;20037;-75
2023/09/19 09:22:23;;;;;;;0.00;0.00;;;;;;;15.33;100.00;99380.56;5007302;28;20033;-74
2023/09/19 09:24:58;;;;;;;0.00;0.00;;;;;;;15.32;100.00;99395.50;5021335;28;20423;-74
2023/09/19 09:27:24;;;;;;;0.00;0.00;;;;;;;15.22;100.00;99412.31;5034342;28;20080;-72
2023/09/19 09:29:51;;;;;;;0.00;0.00;;;;;;;15.09;100.00;99401.09;5019162;28;20036;-73
2023/09/19 09:32:24;;;;;;;0.00;0.00;;;;;;;15.01;100.00;99412.94;5030136;28;20545;-73
2023/09/19 09:34:55;;;;;;;0.00;0.00;;;;;;;15.03;100.00;99405.16;5018149;28;20040;-74
2023/09/19 09:37:24;;;;;;;0.00;0.00;;;;;;;15.09;100.00;99392.06;5012727;28;20028;-73
2023/09/19 09:39:56;;;;;;;0.00;0.00;;;;;;;15.09;100.00;99390.09;5031675;28;20025;-75
2023/09/19 09:42:52;;;;;;;0.00;0.00;;;;;;;15.10;100.00;99400.00;5017149;28;20032;-74
2023/09/19 09:48:03;;;;;;;0.00;0.00;;;;;;;15.26;100.00;99397.59;5036188;28;20467;-75
2023/09/19 09:50:44;;;;;;;0.00;0.00;;;;;;;15.34;100.00;99404.22;5008952;28;20025;-74
2023/09/19 09:53:32;;;;;;;0.00;0.00;;;;;;;15.52;100.00;99394.84;5018158;28;20390;-75
2023/09/19 09:56:05;;;;;;;0.00;0.00;;;;;;;15.89;100.00;99375.22;5035447;28;20407;-75
2023/09/19 09:58:32;;;;;;;0.00;0.00;;;;;;;16.06;100.00;99377.09;5006525;28;20028;-75
2023/09/19 10:01:17;;;;;;;0.00;0.00;;;;;;;15.98;100.00;99400.03;5023366;28;20033;-75
2023/09/19 10:03:44;;;;;;;0.00;0.00;;;;;;;15.90;100.00;99406.34;5022333;28;20136;-75
2023/09/19 10:09:12;;;;;;;0.00;0.00;;;;;;;15.77;100.00;99388.81;5012442;28;20037;-76
2023/09/19 10:11:54;;;;;;;0.00;0.00;;;;;;;15.77;100.00;99372.28;5020101;28;20021;-73
2023/09/19 10:14:23;;;;;;;0.00;0.00;;;;;;;15.78;100.00;99399.53;4997778;28;20053;-74
2023/09/19 10:16:49;;;;;;;0.00;0.00;;;;;;;15.75;100.00;99380.88;5000859;28;20038;-75
2023/09/19 10:19:30;;;;;;;0.00;0.00;;;;;;;15.59;100.00;99377.00;5000537;28;20024;-74
2023/09/19 10:21:58;;;;;;;0.00;0.00;;;;;;;15.44;100.00;99379.09;5018822;28;20018;-73
2023/09/19 10:24:26;;;;;;;0.00;0.00;;;;;;;15.34;100.00;99371.97;5003429;28;20044;-75
2023/09/19 10:26:54;;;;;;;0.00;0.00;;;;;;;15.26;100.00;99369.22;4997957;28;20037;-75
2023/09/19 10:29:21;;;;;;;0.00;0.00;;;;;;;15.39;100.00;99364.69;4978936;28;20029;-75
2023/09/19 10:31:47;;;;;;;0.00;0.00;;;;;;;15.36;100.00;99377.16;5021005;28;20029;-74
2023/09/19 10:34:17;;;;;;;0.00;0.00;;;;;;;15.41;100.00;99379.75;5003377;28;20048;-75
2023/09/19 10:36:46;;;;;;;0.00;0.00;;;;;;;15.50;100.00;99368.75;5015574;28;20045;-75
2023/09/19 10:39:19;;;;;;;0.00;0.00;;;;;;;15.57;100.00;99401.31;5018185;28;20376;-74
2023/09/19 10:41:58;;;;;;;0.00;0.00;;;;;;;15.53;100.00;99373.59;4996719;28;20120;-75
2023/09/19 10:44:28;;;;;;;0.00;0.00;;;;;;;15.67;100.00;99378.94;5005012;28;20116;-74
2023/09/19 10:46:53;;;;;;;0.00;0.00;;;;;;;15.73;100.00;99426.44;5004757;28;20503;-75
2023/09/19 10:49:24;;;;;;;0.00;0.00;;;;;;;15.71;100.00;99380.72;4994279;28;20045;-75
2023/09/19 10:51:55;;;;;;;0.00;0.00;;;;;;;15.73;100.00;99380.41;5020371;28;20029;-75
2023/09/19 10:54:26;;;;;;;0.00;0.00;;;;;;;15.71;100.00;99390.91;5016254;28;20032;-75
2023/09/19 10:56:53;;;;;;;0.00;0.00;;;;;;;15.53;100.00;99384.63;4993452;28;20434;-74
2023/09/19 10:59:20;;;;;;;0.00;0.00;;;;;;;15.38;100.00;99388.69;4985744;28;20026;-75
2023/09/19 11:01:51;;;;;;;0.00;0.00;;;;;;;15.38;100.00;99410.72;4989466;28;20033;-76
2023/09/19 11:04:35;;;;;;;0.00;0.00;;;;;;;15.39;100.00;99400.50;5000787;28;20038;-77
2023/09/19 11:07:14;;;;;;;0.00;0.00;;;;;;;15.35;100.00;99405.84;4993392;28;20057;-76
2023/09/19 11:09:58;;;;;;;0.00;0.00;;;;;;;15.44;100.00;99403.09;4995856;28;20385;-76
2023/09/19 11:12:35;;;;;;;0.00;0.00;;;;;;;15.46;100.00;99390.63;5016147;28;20041;-76
2023/09/19 11:15:07;;;;;;;0.00;0.00;;;;;;;15.39;100.00;99404.06;5061787;28;20394;-76
2023/09/19 11:17:46;;;;;;;0.00;0.00;;;;;;;15.59;100.00;99399.84;5028295;28;20036;-76
2023/09/19 11:22:53;;;;;;;0.00;0.00;;;;;;;15.83;100.00;99387.56;5035709;28;20029;-77
2023/09/19 11:25:38;;;;;;;0.00;0.00;;;;;;;15.78;100.00;99369.22;5043999;28;20065;-77
2023/09/19 11:28:13;;;;;;;0.00;0.00;;;;;;;16.09;100.00;99389.44;5045762;28;20021;-76
2023/09/19 11:30:43;;;;;;;0.00;0.00;;;;;;;16.16;100.00;99362.97;5045211;28;20024;-78
2023/09/19 11:33:28;;;;;;;0.00;0.00;;;;;;;16.39;100.00;99382.84;5032872;28;20037;-79
2023/09/19 11:36:07;;;;;;;0.00;0.00;;;;;;;16.42;100.00;99364.84;5015802;28;20043;-78
2023/09/19 11:38:49;;;;;;;0.00;0.00;;;;;;;16.41;100.00;99401.81;5022345;28;20320;-77
2023/09/19 11:48:22;;;;;;;;;;;;;;;;;;;;;
2023/09/19 11:51:00;;;;;;;0.00;0.00;;;;;;;16.64;100.00;99340.88;5035426;28;20029;-76
2023/09/19 11:53:32;;;;;;;0.00;0.00;;;;;;;16.67;100.00;99354.81;5029964;28;20037;-75
2023/09/19 11:56:17;;;;;;;;;;;;;;;;;;;;;
2023/09/19 11:59:13;;;;;;;0.00;0.00;;;;;;;16.82;100.00;99360.91;5011866;28;20491;-75
2023/09/19 12:08:00;;;;;;;;;;;;;;;;;;;;;
2023/09/19 12:10:27;;;;;;;0.00;0.00;;;;;;;16.05;100.00;99345.97;5040123;28;20039;-76